Time;durP1;ratioP1;P1;durP2;ratioP2;P2;SDS_P1;SDS_P2;PMS_P1;PMS_P2;Temp;Humidity;BMP_temperature;BMP_pressure;BME280_temperature;BME280_humidity;BME280_pressure;Samples;Min_cycle;Max_cycle;Signal;HPM_P1;HPM_P2
2022/11/08 00:03:49;;;;;;;9.48;4.32;;;;;;;11.04;100.00;100511.88;4925652;29;20054;-80
2022/11/08 00:14:30;;;;;;;14.07;5.00;;;;;;;11.30;100.00;100506.50;4915555;29;20055;-81
2022/11/08 00:16:56;;;;;;;10.88;4.65;;;;;;;11.28;100.00;100513.69;4910550;29;20083;-80
2022/11/08 00:19:23;;;;;;;9.07;4.70;;;;;;;11.26;100.00;100511.25;4915287;29;20048;-80
2022/11/08 00:21:49;;;;;;;11.13;4.40;;;;;;;11.29;100.00;100510.09;4905964;29;20080;-81
2022/11/08 00:24:16;;;;;;;13.68;5.10;;;;;;;11.26;100.00;100518.28;4906297;29;20576;-80
2022/11/08 00:26:43;;;;;;;10.02;4.57;;;;;;;11.22;100.00;100509.09;4906155;29;20582;-79
2022/11/08 00:29:09;;;;;;;14.25;4.80;;;;;;;11.19;100.00;100517.28;4907477;29;20120;-80
2022/11/08 00:31:37;;;;;;;8.63;4.45;;;;;;;11.19;100.00;100514.66;4908610;29;20095;-79
2022/11/08 00:34:04;;;;;;;11.48;4.82;;;;;;;11.16;100.00;100507.97;4905005;29;20053;-80
2022/11/08 00:36:31;;;;;;;13.20;4.65;;;;;;;11.18;100.00;100519.09;4909318;29;20060;-79
2022/11/08 00:38:57;;;;;;;8.57;4.32;;;;;;;11.21;100.00;100510.91;4926779;29;20138;-80
2022/11/08 00:41:24;;;;;;;10.88;4.10;;;;;;;11.28;100.00;100514.50;4928256;29;20056;-80
2022/11/08 00:43:50;;;;;;;12.77;4.28;;;;;;;11.34;100.00;100507.81;4928627;29;20083;-80
2022/11/08 00:46:17;;;;;;;8.45;4.15;;;;;;;11.27;100.00;100507.63;4912571;29;20135;-80
2022/11/08 00:48:45;;;;;;;9.52;4.13;;;;;;;11.31;100.00;100516.00;4909496;29;20128;-80
2022/11/08 00:51:12;;;;;;;8.93;4.32;;;;;;;11.29;100.00;100507.47;4924255;29;20075;-80
2022/11/08 00:53:40;;;;;;;9.93;3.95;;;;;;;11.32;100.00;100509.78;4929566;29;20498;-80
2022/11/08 00:56:10;;;;;;;8.90;4.20;;;;;;;11.30;100.00;100504.69;4928105;29;20048;-81
2022/11/08 00:58:37;;;;;;;10.80;4.03;;;;;;;11.32;100.00;100507.16;4908547;29;20131;-80
2022/11/08 01:01:09;;;;;;;8.85;3.78;;;;;;;11.31;100.00;100510.75;4914653;29;20439;-80
2022/11/08 01:03:36;;;;;;;11.38;4.45;;;;;;;11.31;100.00;100505.50;4923494;29;20499;-80
2022/11/08 01:06:07;;;;;;;9.75;3.95;;;;;;;11.32;100.00;100498.47;4928427;29;20065;-80
2022/11/08 01:08:33;;;;;;;9.18;4.25;;;;;;;11.35;100.00;100498.94;4924102;29;20490;-80
2022/11/08 01:11:03;;;;;;;8.82;3.80;;;;;;;11.37;100.00;100494.34;4921220;29;20056;-80
2022/11/08 01:13:30;;;;;;;9.13;3.72;;;;;;;11.44;100.00;100497.97;4922359;29;20090;-80
2022/11/08 01:15:57;;;;;;;7.95;3.80;;;;;;;11.51;100.00;100495.50;4914815;29;20087;-79
2022/11/08 01:18:24;;;;;;;10.73;3.90;;;;;;;11.49;100.00;100500.91;4903923;29;20124;-79
2022/11/08 01:20:50;;;;;;;9.45;4.13;;;;;;;11.58;100.00;100505.16;4920038;29;20466;-81
2022/11/08 01:23:19;;;;;;;10.63;4.05;;;;;;;11.59;100.00;100493.69;4922351;29;20213;-80
2022/11/08 01:25:47;;;;;;;11.32;4.22;;;;;;;11.59;100.00;100487.63;4915654;29;20059;-80
2022/11/08 01:28:14;;;;;;;8.10;3.75;;;;;;;11.58;100.00;100478.94;4900853;29;20108;-81
2022/11/08 01:30:43;;;;;;;13.98;4.15;;;;;;;11.61;100.00;100472.56;4906418;29;20112;-80
2022/11/08 01:33:10;;;;;;;9.25;4.25;;;;;;;11.62;100.00;100469.78;4921261;29;20136;-80
2022/11/08 01:35:37;;;;;;;7.85;3.67;;;;;;;11.59;100.00;100470.09;4921309;29;20135;-80
2022/11/08 01:38:05;;;;;;;11.50;4.10;;;;;;;11.64;100.00;100467.81;4920543;29;20507;-80
2022/11/08 01:40:33;;;;;;;9.45;3.92;;;;;;;11.69;100.00;100475.16;4922101;29;20076;-81
2022/11/08 01:43:00;;;;;;;7.55;3.90;;;;;;;11.59;100.00;100464.88;4921052;29;20139;-81
2022/11/08 01:46:15;;;;;;;8.90;3.53;;;;;;;11.62;100.00;100475.03;4917767;29;20535;-81
2022/11/08 01:48:46;;;;;;;8.68;4.32;;;;;;;11.59;100.00;100475.34;4900908;29;20087;-81
2022/11/08 01:51:16;;;;;;;9.50;4.20;;;;;;;11.55;100.00;100463.56;4902271;29;20087;-80
2022/11/08 01:53:44;;;;;;;8.20;4.10;;;;;;;11.54;100.00;100476.81;4923277;29;20147;-80
2022/11/08 01:56:14;;;;;;;6.85;4.20;;;;;;;11.46;100.00;100459.31;4922467;29;20140;-80
2022/11/08 01:58:45;;;;;;;8.60;4.00;;;;;;;11.46;100.00;100459.31;4922454;29;20068;-80
2022/11/08 02:01:12;;;;;;;8.00;4.05;;;;;;;11.44;100.00;100455.22;4916636;29;20116;-80
2022/11/08 02:03:41;;;;;;;10.15;4.40;;;;;;;11.41;100.00;100450.31;4908862;29;20477;-80
2022/11/08 02:06:08;;;;;;;6.68;3.75;;;;;;;11.37;100.00;100460.28;4909333;29;20144;-80
2022/11/08 02:08:38;;;;;;;8.18;4.28;;;;;;;11.32;100.00;100454.75;4910393;29;20158;-80
2022/11/08 02:11:06;;;;;;;11.10;4.40;;;;;;;11.30;100.00;100461.97;4926440;29;20087;-81
2022/11/08 02:13:35;;;;;;;9.35;4.20;;;;;;;11.28;100.00;100463.94;4928513;29;20088;-80
2022/11/08 02:16:02;;;;;;;6.45;4.10;;;;;;;11.25;100.00;100456.41;4926426;29;20052;-81
2022/11/08 02:18:31;;;;;;;7.25;4.60;;;;;;;11.18;100.00;100455.41;4954099;23;20151;-77
2022/11/08 02:21:06;;;;;;;8.52;4.90;;;;;;;11.14;100.00;100443.63;4901403;29;20052;-79
2022/11/08 02:23:45;;;;;;;11.07;5.28;;;;;;;11.09;100.00;100443.31;4901321;29;20057;-78
2022/11/08 02:26:12;;;;;;;8.88;4.60;;;;;;;11.02;100.00;100437.06;4900895;29;20136;-77
2022/11/08 02:28:39;;;;;;;12.45;5.85;;;;;;;10.92;100.00;100452.94;4902266;29;20436;-77
2022/11/08 02:31:08;;;;;;;9.95;5.60;;;;;;;10.78;100.00;100451.78;4901826;29;20508;-79
2022/11/08 02:33:35;;;;;;;11.02;5.43;;;;;;;10.83;100.00;100451.31;4901696;29;20056;-79
2022/11/08 02:36:03;;;;;;;9.57;5.25;;;;;;;10.78;100.00;100454.41;4901003;29;20148;-79
2022/11/08 02:38:30;;;;;;;10.95;5.88;;;;;;;10.74;100.00;100447.88;4900608;29;20080;-79
2022/11/08 02:40:58;;;;;;;14.95;6.10;;;;;;;10.71;100.00;100444.75;4906333;29;20135;-79
2022/11/08 02:43:25;;;;;;;11.27;5.40;;;;;;;10.67;100.00;100428.56;4905694;29;20096;-79
2022/11/08 02:45:52;;;;;;;10.63;5.00;;;;;;;10.74;100.00;100429.53;4905449;29;20072;-80
2022/11/08 02:48:20;;;;;;;10.27;5.40;;;;;;;10.69;100.00;100423.97;4904452;29;20053;-79
2022/11/08 02:50:47;;;;;;;9.75;4.70;;;;;;;10.63;100.00;100422.00;4905885;29;20072;-79
2022/11/08 02:53:14;;;;;;;8.23;4.43;;;;;;;10.58;100.00;100419.03;4904752;29;20148;-79
2022/11/08 02:55:41;;;;;;;9.05;5.05;;;;;;;10.49;100.00;100422.63;4904240;29;20481;-79
2022/11/08 02:58:09;;;;;;;11.70;4.88;;;;;;;10.45;100.00;100416.06;4904283;29;20052;-79
2022/11/08 03:00:36;;;;;;;10.73;4.90;;;;;;;10.50;100.00;100403.31;4905009;29;20136;-79
2022/11/08 03:03:03;;;;;;;10.63;5.20;;;;;;;10.52;100.00;100401.38;4903472;29;20080;-79
2022/11/08 03:05:31;;;;;;;11.85;5.30;;;;;;;10.55;100.00;100395.81;4901772;29;20052;-77
2022/11/08 03:07:58;;;;;;;11.07;5.38;;;;;;;10.56;100.00;100390.44;4903025;29;20143;-78
2022/11/08 03:10:26;;;;;;;15.75;6.85;;;;;;;10.49;100.00;100380.75;4904750;29;20084;-78
2022/11/08 03:12:55;;;;;;;10.70;5.72;;;;;;;10.42;100.00;100382.38;4902633;29;20552;-79
2022/11/08 03:15:24;;;;;;;11.07;6.07;;;;;;;10.36;100.00;100386.50;4901223;29;20063;-79
2022/11/08 03:17:51;;;;;;;12.23;6.15;;;;;;;10.30;100.00;100380.09;4900989;29;20087;-77
2022/11/08 03:20:18;;;;;;;11.88;6.80;;;;;;;10.18;100.00;100372.66;4902139;29;20084;-78
2022/11/08 03:22:45;;;;;;;14.00;6.80;;;;;;;10.18;100.00;100373.50;4902151;29;20143;-79
2022/11/08 03:25:11;;;;;;;10.80;5.82;;;;;;;10.11;100.00;100367.25;4903348;29;20184;-79
2022/11/08 03:27:38;;;;;;;10.00;5.75;;;;;;;10.16;100.00;100362.38;4905134;29;20117;-78
2022/11/08 03:30:06;;;;;;;10.52;5.85;;;;;;;10.15;100.00;100358.13;4905919;29;20092;-77
2022/11/08 03:32:35;;;;;;;10.80;5.65;;;;;;;10.17;100.00;100358.78;4905196;29;20123;-80
2022/11/08 03:35:02;;;;;;;10.00;5.50;;;;;;;10.09;100.00;100343.06;4904287;29;20174;-80
2022/11/08 03:37:29;;;;;;;14.13;6.07;;;;;;;9.99;100.00;100348.44;4903528;29;20205;-80
2022/11/08 03:39:55;;;;;;;10.65;5.82;;;;;;;9.96;100.00;100353.16;4902815;29;20060;-79
2022/11/08 03:42:22;;;;;;;10.27;5.40;;;;;;;9.93;100.00;100348.25;4904050;29;20590;-80
2022/11/08 03:44:49;;;;;;;10.63;5.20;;;;;;;9.87;100.00;100348.91;4905313;29;20048;-81
2022/11/08 03:47:15;;;;;;;8.30;5.60;;;;;;;9.83;100.00;100347.56;4903535;29;20488;-81
2022/11/08 03:49:43;;;;;;;6.38;4.47;;;;;;;9.79;100.00;100348.88;4903166;29;20556;-80
2022/11/08 03:52:10;;;;;;;9.65;4.78;;;;;;;9.81;100.00;100354.75;4904024;29;20473;-78
2022/11/08 03:54:37;;;;;;;9.35;5.20;;;;;;;9.73;100.00;100360.75;4903692;29;20166;-80
2022/11/08 03:57:03;;;;;;;8.85;4.40;;;;;;;9.70;100.00;100347.19;4903607;29;20052;-80
2022/11/08 03:59:30;;;;;;;10.90;5.25;;;;;;;9.62;100.00;100347.97;4904917;29;20104;-80
2022/11/08 04:01:57;;;;;;;9.85;5.50;;;;;;;9.59;100.00;100346.50;4904138;29;20084;-79
2022/11/08 04:04:23;;;;;;;12.13;5.57;;;;;;;9.51;100.00;100349.06;4903560;29;20091;-80
2022/11/08 04:06:51;;;;;;;15.07;5.78;;;;;;;9.52;100.00;100349.88;4904347;29;20083;-80
2022/11/08 04:09:18;;;;;;;8.75;5.70;;;;;;;9.46;100.00;100346.09;4902625;29;20563;-81
2022/11/08 04:17:13;;;;;;;11.05;6.97;;;;;;;9.41;100.00;100350.16;4900193;29;20204;-80
2022/11/08 04:22:25;;;;;;;9.52;5.95;;;;;;;9.60;100.00;100337.69;4904848;29;20064;-79
2022/11/08 04:24:51;;;;;;;7.95;5.55;;;;;;;9.62;100.00;100335.72;4904612;29;20104;-79
2022/11/08 04:27:18;;;;;;;10.00;6.00;;;;;;;9.55;100.00;100329.50;4906061;29;20475;-80
2022/11/08 04:29:45;;;;;;;11.48;5.65;;;;;;;9.56;100.00;100328.53;4905530;29;20116;-81
2022/11/08 04:32:11;;;;;;;10.40;5.75;;;;;;;9.54;100.00;100327.84;4902877;29;20531;-78
2022/11/08 04:34:38;;;;;;;9.18;6.07;;;;;;;9.45;100.00;100341.84;4903159;29;20391;-78
2022/11/08 04:37:05;;;;;;;9.27;6.07;;;;;;;9.46;100.00;100337.44;4903965;29;20076;-81
2022/11/08 04:39:32;;;;;;;11.82;5.68;;;;;;;9.38;100.00;100337.44;4903519;29;20083;-81
2022/11/08 04:41:59;;;;;;;11.60;6.57;;;;;;;9.40;100.00;100319.81;4904863;29;20083;-81
2022/11/08 04:44:26;;;;;;;11.02;6.32;;;;;;;9.42;100.00;100317.88;4904429;29;20555;-81
2022/11/08 04:46:52;;;;;;;10.82;6.60;;;;;;;9.39;100.00;100320.78;4903522;29;20059;-80
2022/11/08 04:49:19;;;;;;;12.93;6.95;;;;;;;9.27;100.00;100315.00;4902337;29;20048;-80
2022/11/08 04:51:46;;;;;;;13.32;6.72;;;;;;;9.26;100.00;100308.16;4903476;29;20116;-80
2022/11/08 04:54:12;;;;;;;14.65;7.28;;;;;;;9.25;100.00;100311.72;4902745;29;20080;-80
2022/11/08 04:56:40;;;;;;;16.23;8.05;;;;;;;9.34;100.00;100310.81;4902037;29;20080;-80
2022/11/08 04:59:07;;;;;;;15.23;8.35;;;;;;;9.37;100.00;100307.06;4901748;29;20053;-78
2022/11/08 05:01:35;;;;;;;13.23;8.65;;;;;;;9.36;100.00;100292.38;4901298;29;20053;-79
2022/11/08 05:04:01;;;;;;;13.63;8.48;;;;;;;9.30;100.00;100270.31;4900268;29;20052;-78
2022/11/08 05:06:30;;;;;;;14.23;9.15;;;;;;;9.25;100.00;100260.34;4896054;29;20148;-78
2022/11/08 05:08:57;;;;;;;16.17;10.07;;;;;;;9.26;100.00;100274.22;4895774;29;20140;-78
2022/11/08 05:11:27;;;;;;;17.95;9.73;;;;;;;9.25;100.00;100267.34;4897085;29;20140;-78
2022/11/08 05:13:55;;;;;;;14.30;9.55;;;;;;;9.20;100.00;100246.09;4896530;29;20506;-79
2022/11/08 05:16:24;;;;;;;18.10;10.00;;;;;;;9.22;100.00;100262.44;4895712;29;20051;-77
2022/11/08 05:18:51;;;;;;;17.10;9.55;;;;;;;9.26;100.00;100245.47;4899022;29;20056;-78
2022/11/08 05:24:06;;;;;;;16.27;9.85;;;;;;;9.24;100.00;100250.88;4900572;29;20139;-78
2022/11/08 05:26:34;;;;;;;15.35;9.23;;;;;;;9.31;100.00;100251.88;4899673;29;20140;-79
2022/11/08 05:29:02;;;;;;;17.77;10.13;;;;;;;9.29;100.00;100250.41;4899171;29;20112;-77
2022/11/08 05:31:29;;;;;;;20.63;9.55;;;;;;;9.28;100.00;100256.59;4896068;29;20135;-79
2022/11/08 05:33:55;;;;;;;11.70;8.50;;;;;;;9.25;100.00;100249.06;4898656;29;20060;-79
2022/11/08 05:36:22;;;;;;;15.38;8.68;;;;;;;9.21;100.00;100232.06;4899470;29;20084;-79
2022/11/08 05:38:49;;;;;;;15.32;9.02;;;;;;;9.25;100.00;100236.84;4897770;29;20080;-79
2022/11/08 05:41:17;;;;;;;13.52;8.52;;;;;;;9.27;100.00;100236.69;4899332;29;20060;-80
2022/11/08 05:43:46;;;;;;;13.73;8.38;;;;;;;9.19;100.00;100240.06;4899700;29;20106;-79
2022/11/08 05:46:15;;;;;;;14.13;8.38;;;;;;;9.20;100.00;100240.88;4899018;29;20493;-79
2022/11/08 05:48:42;;;;;;;16.23;8.75;;;;;;;9.25;100.00;100215.13;4901788;29;20520;-80
2022/11/08 05:51:10;;;;;;;13.98;7.95;;;;;;;9.27;100.00;100208.78;4902627;29;20140;-79
2022/11/08 05:53:37;;;;;;;16.38;8.35;;;;;;;9.25;100.00;100200.28;4898605;29;20057;-78
2022/11/08 05:56:04;;;;;;;10.82;7.88;;;;;;;9.33;100.00;100199.50;4898490;29;20052;-79
2022/11/08 05:58:33;;;;;;;11.95;7.28;;;;;;;9.37;100.00;100194.78;4899971;29;20136;-80
2022/11/08 06:01:00;;;;;;;11.20;7.10;;;;;;;9.39;100.00;100183.19;4897493;29;20132;-78
2022/11/08 06:03:29;;;;;;;12.57;7.63;;;;;;;9.39;100.00;100172.75;4897107;29;20059;-79
2022/11/08 06:05:56;;;;;;;9.80;6.85;;;;;;;9.39;100.00;100164.91;4898665;29;20485;-79
2022/11/08 06:08:22;;;;;;;13.07;6.78;;;;;;;9.45;100.00;100166.88;4898442;29;20488;-79
2022/11/08 06:10:49;;;;;;;16.58;6.82;;;;;;;9.47;100.00;100157.06;4897574;29;20135;-79
2022/11/08 06:13:16;;;;;;;9.63;6.72;;;;;;;9.43;100.00;100166.25;4896973;29;20052;-79
2022/11/08 06:15:42;;;;;;;13.65;7.70;;;;;;;9.38;100.00;100165.91;4896734;29;20449;-79
2022/11/08 06:18:09;;;;;;;11.93;6.40;;;;;;;9.37;100.00;100179.94;4896817;29;20049;-77
2022/11/08 06:20:37;;;;;;;9.77;6.57;;;;;;;9.43;100.00;100168.03;4898132;29;20057;-79
2022/11/08 06:23:03;;;;;;;12.25;6.38;;;;;;;9.45;100.00;100177.31;4897162;29;20048;-77
2022/11/08 06:25:30;;;;;;;11.48;6.65;;;;;;;9.48;100.00;100184.00;4898795;29;20135;-79
2022/11/08 06:27:59;;;;;;;13.25;6.70;;;;;;;9.46;100.00;100184.16;4897075;29;20136;-76
2022/11/08 06:30:26;;;;;;;10.50;6.10;;;;;;;9.49;100.00;100178.63;4894987;29;20135;-77
2022/11/08 06:32:52;;;;;;;12.73;6.50;;;;;;;9.54;100.00;100189.41;4896777;29;20472;-78
2022/11/08 06:35:19;;;;;;;11.13;6.03;;;;;;;9.59;100.00;100184.53;4899122;29;20053;-77
2022/11/08 06:37:47;;;;;;;10.85;6.53;;;;;;;9.53;100.00;100187.78;4897854;29;20063;-79
2022/11/08 06:40:13;;;;;;;12.73;6.22;;;;;;;9.49;100.00;100178.63;4899133;29;20202;-77
2022/11/08 06:42:40;;;;;;;15.07;6.80;;;;;;;9.49;100.00;100180.41;4899293;29;20455;-79
2022/11/08 06:45:07;;;;;;;11.38;5.95;;;;;;;9.48;100.00;100186.63;4898231;29;20053;-78
2022/11/08 06:47:34;;;;;;;10.02;5.80;;;;;;;9.54;100.00;100186.81;4902207;29;20056;-79
2022/11/08 06:50:00;;;;;;;12.15;5.93;;;;;;;9.54;100.00;100186.00;4903992;29;20209;-78
2022/11/08 06:52:27;;;;;;;9.88;6.07;;;;;;;9.50;100.00;100185.50;4899183;29;20099;-77
2022/11/08 06:54:57;;;;;;;9.38;6.13;;;;;;;9.46;100.00;100183.34;4899214;29;20135;-77
2022/11/08 06:57:24;;;;;;;10.30;6.60;;;;;;;9.48;100.00;100187.44;4899089;29;20425;-78
2022/11/08 06:59:50;;;;;;;12.23;6.18;;;;;;;9.51;100.00;100192.34;4897740;29;20056;-77
2022/11/08 07:02:17;;;;;;;11.35;6.10;;;;;;;9.65;100.00;100190.91;4898555;29;20116;-75
2022/11/08 07:04:43;;;;;;;12.27;5.97;;;;;;;9.65;100.00;100199.56;4899865;29;20108;-76
2022/11/08 07:07:10;;;;;;;8.95;5.65;;;;;;;9.72;100.00;100198.94;4898212;29;20055;-77
2022/11/08 07:09:37;;;;;;;8.82;5.82;;;;;;;9.77;100.00;100194.03;4898254;29;20053;-76
2022/11/08 07:12:05;;;;;;;14.13;6.00;;;;;;;9.82;100.00;100189.16;4899197;29;20095;-76
2022/11/08 07:14:31;;;;;;;9.65;5.72;;;;;;;9.80;100.00;100185.88;4898203;29;20135;-77
2022/11/08 07:16:58;;;;;;;9.18;5.65;;;;;;;9.87;100.00;100189.50;4899510;29;20087;-77
2022/11/08 07:19:24;;;;;;;9.43;5.50;;;;;;;9.87;100.00;100181.66;4899384;29;20088;-76
2022/11/08 07:21:51;;;;;;;8.82;5.75;;;;;;;9.81;100.00;100187.53;4900033;29;20053;-77
2022/11/08 07:24:18;;;;;;;9.98;5.53;;;;;;;9.79;100.00;100182.47;4899851;29;20116;-78
2022/11/08 07:26:44;;;;;;;11.48;5.45;;;;;;;9.80;100.00;100186.69;4901264;29;20052;-76
2022/11/08 07:29:12;;;;;;;10.52;5.88;;;;;;;9.85;100.00;100184.41;4901577;29;20464;-76
2022/11/08 07:31:39;;;;;;;9.52;6.20;;;;;;;9.85;100.00;100184.41;4902057;29;20306;-75
2022/11/08 07:34:05;;;;;;;14.77;6.00;;;;;;;9.93;100.00;100189.63;4901445;29;20531;-76
2022/11/08 07:36:32;;;;;;;8.20;5.38;;;;;;;9.95;100.00;100186.84;4901671;29;20100;-77
2022/11/08 07:38:58;;;;;;;10.35;6.00;;;;;;;10.03;100.00;100193.88;4895724;29;20044;-76
2022/11/08 07:41:25;;;;;;;11.18;5.85;;;;;;;10.07;100.00;100198.63;4901227;29;20048;-77
2022/11/08 07:43:52;;;;;;;10.48;6.22;;;;;;;10.17;100.00;100204.53;4903788;29;20090;-78
2022/11/08 07:46:19;;;;;;;11.10;6.30;;;;;;;10.42;99.90;100194.06;4903623;29;20120;-78
2022/11/08 07:48:46;;;;;;;8.60;5.50;;;;;;;10.68;98.47;100197.28;4902885;29;20053;-79
2022/11/08 07:51:13;;;;;;;10.15;5.00;;;;;;;10.66;97.05;100182.75;4904326;29;20084;-79
2022/11/08 07:53:39;;;;;;;6.15;4.55;;;;;;;10.75;96.55;100190.41;4905090;29;20061;-78
2022/11/08 07:56:06;;;;;;;8.57;4.70;;;;;;;10.87;95.86;100181.19;4903363;29;20111;-77
2022/11/08 07:58:33;;;;;;;8.80;4.97;;;;;;;11.08;94.66;100174.59;4901800;29;20155;-79
2022/11/08 08:01:02;;;;;;;6.32;4.47;;;;;;;10.87;94.29;100169.94;4902877;29;20056;-77
2022/11/08 08:03:30;;;;;;;8.52;4.30;;;;;;;11.15;93.93;100168.50;4904283;29;20052;-78
2022/11/08 08:05:57;;;;;;;6.22;4.20;;;;;;;11.15;93.07;100165.06;4902612;29;20535;-79
2022/11/08 08:08:23;;;;;;;9.75;4.18;;;;;;;11.35;92.20;100168.88;4903016;29;20135;-79
2022/11/08 08:10:50;;;;;;;9.43;4.38;;;;;;;11.59;91.42;100175.78;4903111;29;20116;-78
2022/11/08 08:13:17;;;;;;;7.25;3.65;;;;;;;11.24;92.08;100164.03;4902502;29;20131;-78
2022/11/08 08:15:43;;;;;;;9.27;4.10;;;;;;;11.26;91.73;100164.69;4903456;29;20116;-79
2022/11/08 08:18:11;;;;;;;13.32;4.30;;;;;;;11.27;92.04;100174.19;4902892;29;20102;-78
2022/11/08 08:20:39;;;;;;;7.65;4.00;;;;;;;11.27;92.44;100175.00;4900124;29;20171;-80
2022/11/08 08:23:06;;;;;;;9.02;4.68;;;;;;;11.30;91.72;100182.50;4903449;29;20099;-79
2022/11/08 08:25:33;;;;;;;9.40;4.53;;;;;;;11.32;91.41;100184.97;4901149;29;20064;-78
2022/11/08 08:28:00;;;;;;;10.27;6.43;;;;;;;11.33;91.92;100199.69;4901182;29;20087;-77
2022/11/08 08:30:28;;;;;;;10.30;4.18;;;;;;;11.37;91.42;100203.56;4901766;29;20067;-78
2022/11/08 08:33:02;;;;;;;5.55;4.07;;;;;;;11.34;91.10;100193.47;4900413;29;20072;-79
2022/11/08 08:35:29;;;;;;;7.82;4.50;;;;;;;11.36;90.73;100186.22;4900624;29;20136;-78
2022/11/08 08:37:59;;;;;;;9.13;4.47;;;;;;;11.59;90.73;100192.31;4899436;29;20562;-77
2022/11/08 08:40:26;;;;;;;13.88;4.53;;;;;;;11.68;90.01;100197.53;4900324;29;20063;-78
2022/11/08 08:42:53;;;;;;;10.65;4.32;;;;;;;11.71;90.07;100194.56;4899357;29;20084;-78
2022/11/08 08:45:19;;;;;;;9.45;4.40;;;;;;;11.75;89.25;100187.97;4899503;29;20060;-79
2022/11/08 08:47:50;;;;;;;7.57;4.53;;;;;;;11.81;89.11;100190.75;4899647;29;20135;-78
2022/11/08 08:50:17;;;;;;;6.30;4.28;;;;;;;11.72;88.81;100199.63;4902627;29;20487;-77
2022/11/08 08:52:44;;;;;;;8.30;4.90;;;;;;;11.71;89.04;100195.38;4901080;29;20486;-78
2022/11/08 08:55:12;;;;;;;7.50;4.40;;;;;;;11.75;89.26;100185.34;4898865;29;20135;-78
2022/11/08 08:57:38;;;;;;;7.88;4.85;;;;;;;11.74;89.11;100186.34;4897495;29;20127;-78
2022/11/08 09:00:06;;;;;;;10.82;4.95;;;;;;;11.69;89.06;100186.88;4897284;29;20053;-78
2022/11/08 09:02:33;;;;;;;6.10;4.35;;;;;;;11.83;89.08;100183.50;4897092;29;20084;-77
2022/11/08 09:04:59;;;;;;;6.40;4.47;;;;;;;11.93;88.51;100191.13;4898861;29;20144;-78
2022/11/08 09:07:26;;;;;;;6.57;4.40;;;;;;;11.96;88.35;100186.34;4898264;29;20084;-78
2022/11/08 09:09:52;;;;;;;5.75;4.20;;;;;;;11.84;88.43;100185.13;4897421;29;20091;-77
2022/11/08 09:12:21;;;;;;;8.93;4.57;;;;;;;11.90;88.60;100191.47;4897838;29;20104;-78
2022/11/08 09:14:48;;;;;;;7.82;4.40;;;;;;;11.96;87.97;100196.03;4898960;29;20052;-78
2022/11/08 09:17:15;;;;;;;6.25;4.22;;;;;;;11.91;88.04;100191.31;4898776;29;20249;-78
2022/11/08 09:19:42;;;;;;;7.32;3.90;;;;;;;11.93;87.75;100189.31;4896536;29;20127;-79
2022/11/08 09:22:08;;;;;;;7.13;4.28;;;;;;;11.93;87.98;100188.50;4906973;29;20127;-75
2022/11/08 09:24:35;;;;;;;5.72;4.18;;;;;;;11.95;87.94;100187.34;4896454;29;20191;-77
2022/11/08 09:27:02;;;;;;;8.65;4.40;;;;;;;11.94;87.59;100184.91;4898289;29;20048;-78
2022/11/08 09:29:30;;;;;;;6.72;4.10;;;;;;;11.98;87.77;100174.88;4895427;29;20500;-78
2022/11/08 09:31:57;;;;;;;7.85;4.10;;;;;;;12.03;87.57;100172.53;4896160;29;20494;-77
2022/11/08 09:34:24;;;;;;;10.38;4.55;;;;;;;12.03;87.23;100173.38;4896317;29;20563;-79
2022/11/08 09:36:51;;;;;;;7.00;4.05;;;;;;;12.04;86.95;100166.31;4897113;29;20132;-78
2022/11/08 09:39:17;;;;;;;7.90;4.28;;;;;;;12.05;87.12;100160.06;4895738;29;20184;-77
2022/11/08 09:42:01;;;;;;;8.35;4.88;;;;;;;12.02;86.79;100157.81;4896790;29;20048;-78
2022/11/08 09:44:56;;;;;;;8.25;4.70;;;;;;;12.04;86.95;100158.44;4897256;29;20061;-78
2022/11/08 09:47:25;;;;;;;7.88;4.20;;;;;;;12.13;86.82;100168.69;4897249;29;20147;-78
2022/11/08 09:50:00;;;;;;;6.60;4.40;;;;;;;12.14;86.48;100167.69;4897167;29;20052;-77
2022/11/08 09:52:29;;;;;;;8.15;4.38;;;;;;;12.21;86.38;100152.06;4897166;29;20067;-78
2022/11/08 09:55:04;;;;;;;8.23;4.57;;;;;;;12.30;86.16;100148.34;4897017;29;20092;-78
2022/11/08 09:57:47;;;;;;;7.15;4.05;;;;;;;12.40;85.47;100150.72;4896218;29;20532;-77
2022/11/08 10:00:15;;;;;;;7.50;4.20;;;;;;;12.38;84.93;100150.91;4894818;29;20548;-77
2022/11/08 10:02:42;;;;;;;8.32;4.47;;;;;;;12.39;84.66;100147.28;4895330;29;20468;-76
2022/11/08 10:05:14;;;;;;;5.72;3.90;;;;;;;12.43;84.54;100153.00;4895445;29;20056;-76
2022/11/08 10:07:46;;;;;;;8.73;4.50;;;;;;;12.42;84.48;100152.19;4895447;29;20049;-77
2022/11/08 10:10:36;;;;;;;7.30;4.35;;;;;;;12.46;84.65;100137.72;4894508;29;20486;-76
2022/11/08 10:13:13;;;;;;;12.68;4.43;;;;;;;12.48;84.41;100135.72;4895033;29;20052;-76
2022/11/08 10:15:51;;;;;;;6.95;4.20;;;;;;;12.53;83.75;100127.31;4895608;29;20515;-79
2022/11/08 10:18:39;;;;;;;6.88;4.10;;;;;;;12.60;83.65;100129.03;4894203;29;20155;-78
2022/11/08 10:21:18;;;;;;;7.18;4.57;;;;;;;12.56;83.22;100122.50;4894673;29;20048;-78
2022/11/08 10:23:51;;;;;;;6.63;4.45;;;;;;;12.69;83.17;100127.13;4898583;29;20135;-76
2022/11/08 10:26:20;;;;;;;7.80;4.20;;;;;;;12.79;83.05;100127.66;4898994;29;20131;-77
2022/11/08 10:28:51;;;;;;;6.30;4.18;;;;;;;12.74;82.69;100106.41;4900316;29;20070;-78
2022/11/08 10:31:20;;;;;;;10.15;4.30;;;;;;;12.78;82.83;100115.50;4908526;29;20508;-77
2022/11/08 10:33:51;;;;;;;7.07;4.10;;;;;;;12.87;82.32;100121.47;4906258;29;20549;-77
2022/11/08 10:36:24;;;;;;;7.70;4.40;;;;;;;13.00;82.24;100121.66;4900343;29;20076;-77
2022/11/08 10:38:59;;;;;;;11.75;4.50;;;;;;;13.10;81.90;100129.25;4898915;29;20104;-77
2022/11/08 10:41:31;;;;;;;6.93;4.03;;;;;;;13.20;81.29;100122.75;4901619;29;20080;-76
2022/11/08 10:44:05;;;;;;;6.70;4.28;;;;;;;13.23;81.10;100118.94;4904950;29;20131;-77
2022/11/08 10:46:41;;;;;;;6.22;3.78;;;;;;;13.35;80.65;100129.75;4903763;29;20072;-76
2022/11/08 10:49:15;;;;;;;6.28;3.63;;;;;;;13.41;80.06;100126.38;4901496;29;20530;-76
2022/11/08 10:51:44;;;;;;;11.23;4.05;;;;;;;13.33;80.11;100116.78;4906522;29;20135;-76
2022/11/08 10:54:43;;;;;;;6.10;3.90;;;;;;;13.60;79.77;100116.06;4908685;29;20071;-76
2022/11/08 10:57:10;;;;;;;8.13;4.15;;;;;;;13.74;78.62;100118.78;4927501;29;20480;-77
2022/11/08 10:59:37;;;;;;;6.28;3.75;;;;;;;13.87;78.63;100106.59;4919688;29;20144;-77
2022/11/08 11:02:19;;;;;;;8.40;4.40;;;;;;;13.98;77.83;100101.81;4917867;29;20185;-75
2022/11/08 11:04:45;;;;;;;7.63;3.60;;;;;;;14.24;77.60;100100.16;4917798;29;20052;-77
2022/11/08 11:07:27;;;;;;;6.22;3.70;;;;;;;14.19;77.83;100101.75;4917821;29;20131;-77
2022/11/08 11:09:54;;;;;;;6.97;3.70;;;;;;;14.23;77.04;100098.53;4917025;29;20510;-77
2022/11/08 11:12:21;;;;;;;6.03;3.78;;;;;;;14.28;77.53;100093.50;4894992;29;20428;-78
2022/11/08 11:14:56;;;;;;;10.02;4.20;;;;;;;14.33;77.26;100097.38;4906948;29;20477;-78
2022/11/08 11:17:31;;;;;;;10.75;3.90;;;;;;;14.19;77.40;100094.66;4906541;29;20363;-77
2022/11/08 11:19:59;;;;;;;8.65;4.05;;;;;;;14.41;77.20;100092.81;4909197;29;20135;-77
2022/11/08 11:22:29;;;;;;;5.47;4.03;;;;;;;14.32;76.83;100098.41;4921759;29;20484;-78
2022/11/08 11:24:56;;;;;;;7.13;4.07;;;;;;;14.34;77.31;100099.81;4920567;29;20090;-78
2022/11/08 11:27:28;;;;;;;8.07;3.95;;;;;;;14.38;77.36;100098.44;4919598;29;20048;-78
2022/11/08 11:30:20;;;;;;;11.77;4.30;;;;;;;14.45;77.37;100085.34;4919523;29;20446;-78
2022/11/08 11:33:00;;;;;;;13.43;4.30;;;;;;;14.36;77.23;100075.94;4920528;29;20453;-78
2022/11/08 11:35:34;;;;;;;7.70;4.50;;;;;;;14.33;77.49;100074.50;4919937;29;20351;-78
2022/11/08 11:38:04;;;;;;;7.50;3.80;;;;;;;14.36;77.53;100053.06;4918840;29;20063;-77
2022/11/08 11:40:36;;;;;;;5.60;3.90;;;;;;;14.41;77.38;100057.75;4919694;29;20056;-78
2022/11/08 11:43:08;;;;;;;5.38;3.88;;;;;;;14.60;77.00;100064.97;4919214;29;20060;-79
2022/11/08 11:45:40;;;;;;;;;;;;;;;14.69;76.38;100065.59;4920131;29;20389;-78
2022/11/08 11:48:15;;;;;;;7.43;3.85;;;;;;;14.86;76.28;100054.53;4917440;29;19966;-78